»·PEaware :: UAL3227 KSAN-KMRY

UAL3227 :: KSAN-KMRY

FLIGHT INFORMATION

Flight Status: Arrived
Operator:
United Airlines
More flights by this operator :: More flights under this callsign
Pilot: Anonymous 18910 (18910)
Aircraft: AIRBUS A319
(A319)
More flights by this aircraft type
Origin: KSAN San Diego Intl-Lindbergh
United States
Destination: KMRY Monterey Peninsula
United States
More flights between these airports :: More routes between these airports
Route: PADRZ2 IKAYE TESEA SCTRR SNS
File this flight plan on PilotEdge
Remarks:
Altitude:
(Current/Filed)
34,000ft
Speed:
(Current/Filed)
350kts
Departed: 26-Jul-18 09:19 PM
Arrived: 26-Jul-18 10:17 PM
Distance/Time
Traveled:
326nm/0:58
Distance/Time
To Go:
Arrived

Flight Plot

Page will automatically refresh every two minutes.

Flight plan parsing failed; only flown route is shown


Map Options




Map Legend


Flown Route
Filed Route
Departure Airport
Arrival Airport
Navaid (VOR, NDB)
Fix

Horizontal Profiles

Position Reports

Time Latitude Longitude Heading Altitude Ground
Speed
26-Jul-18 20:59 32.733361 -117.199069 116 25ft 0kts
26-Jul-18 21:00 32.733361 -117.199069 116 25ft 0kts
26-Jul-18 21:01 32.733361 -117.199069 116 25ft 0kts
26-Jul-18 21:02 32.733361 -117.199070 116 25ft 0kts
26-Jul-18 21:03 32.733498 -117.199645 66 25ft 2kts
26-Jul-18 21:04 32.733235 -117.199874 11 25ft 0kts
26-Jul-18 21:05 32.733238 -117.199873 11 25ft 0kts
26-Jul-18 21:06 32.733848 -117.199720 12 25ft 0kts
26-Jul-18 21:07 32.734728 -117.199243 64 24ft 7kts
26-Jul-18 21:08 32.734746 -117.198986 101 24ft 0kts
26-Jul-18 21:09 32.734724 -117.198810 104 24ft 0kts
26-Jul-18 21:10 32.734717 -117.198787 103 24ft 1kts
26-Jul-18 21:11 32.733781 -117.194864 105 23ft 17kts
26-Jul-18 21:12 32.732810 -117.190866 106 24ft 16kts
26-Jul-18 21:13 32.731716 -117.186344 107 21ft 16kts
26-Jul-18 21:14 32.730105 -117.179670 104 20ft 15kts
26-Jul-18 21:15 32.729700 -117.177997 107 22ft 0kts
26-Jul-18 21:16 32.729700 -117.177997 107 22ft 0kts
26-Jul-18 21:17 32.729469 -117.177101 101 22ft 6kts
26-Jul-18 21:18 32.729498 -117.176745 70 22ft 0kts
26-Jul-18 21:19 32.730290 -117.176247 286 24ft 0kts
26-Jul-18 21:20 32.735333 -117.196986 287 171ft 170kts
26-Jul-18 21:21 32.758710 -117.246716 304 2716ft 197kts
26-Jul-18 21:22 32.794670 -117.310059 303 4927ft 266kts
26-Jul-18 21:23 32.840705 -117.382190 306 8310ft 285kts
26-Jul-18 21:24 32.890681 -117.459665 306 10822ft 321kts
26-Jul-18 21:25 32.951400 -117.554121 307 11935ft 396kts
26-Jul-18 21:26 33.020419 -117.661847 306 14193ft 425kts
26-Jul-18 21:27 33.100380 -117.767195 318 16797ft 438kts
26-Jul-18 21:28 33.192720 -117.860496 318 18937ft 451kts
26-Jul-18 21:29 33.282682 -117.966579 314 20881ft 462kts
26-Jul-18 21:30 33.373822 -118.076234 314 22581ft 473kts
26-Jul-18 21:31 33.462816 -118.182922 313 25854ft 440kts
26-Jul-18 21:32 33.534000 -118.299559 285 27525ft 435kts
26-Jul-18 21:33 33.562103 -118.438969 281 29352ft 428kts
26-Jul-18 21:34 33.589325 -118.576706 281 30969ft 424kts
26-Jul-18 21:35 33.633988 -118.702443 308 31811ft 445kts
26-Jul-18 21:36 33.741282 -118.782910 332 32238ft 471kts
26-Jul-18 21:37 33.860030 -118.849425 331 33133ft 473kts
26-Jul-18 21:38 33.978940 -118.916823 331 33995ft 474kts
26-Jul-18 21:39 34.096633 -118.986455 326 34005ft 472kts
26-Jul-18 21:40 34.200627 -119.078700 313 34008ft 466kts
26-Jul-18 21:41 34.292458 -119.187874 311 34007ft 463kts
26-Jul-18 21:42 34.383210 -119.296688 311 34007ft 464kts
26-Jul-18 21:43 34.474466 -119.406292 311 34007ft 464kts
26-Jul-18 21:44 34.565647 -119.516153 311 33997ft 464kts
26-Jul-18 21:45 34.656843 -119.626379 311 34728ft 463kts
26-Jul-18 21:46 34.745218 -119.733915 310 35476ft 463kts
26-Jul-18 21:47 34.836169 -119.844690 310 36024ft 463kts
26-Jul-18 21:48 34.926601 -119.955132 310 36042ft 463kts
26-Jul-18 21:49 35.016882 -120.065695 310 36049ft 463kts
26-Jul-18 21:50 35.107191 -120.176634 310 36032ft 463kts
26-Jul-18 21:51 35.200470 -120.281992 317 36046ft 469kts
26-Jul-18 21:52 35.304638 -120.377268 318 36045ft 469kts
26-Jul-18 21:53 35.408477 -120.472584 318 36045ft 469kts
26-Jul-18 21:54 35.512130 -120.568131 318 36035ft 469kts
26-Jul-18 21:55 35.609680 -120.654979 319 36020ft 470kts
26-Jul-18 21:56 35.714529 -120.747967 319 34861ft 463kts
26-Jul-18 21:57 35.818004 -120.840074 320 31942ft 461kts
26-Jul-18 21:58 35.921464 -120.932339 321 28565ft 465kts
26-Jul-18 21:59 36.026285 -121.026094 322 24579ft 474kts
26-Jul-18 22:00 36.128688 -121.117835 323 21449ft 470kts
26-Jul-18 22:01 36.229018 -121.207796 323 17279ft 439kts
26-Jul-18 22:02 36.322885 -121.292520 323 13930ft 401kts
26-Jul-18 22:03 36.410012 -121.371498 324 11591ft 381kts
26-Jul-18 22:04 36.491289 -121.445378 324 10226ft 320kts
26-Jul-18 22:05 36.556476 -121.504791 324 8921ft 269kts
26-Jul-18 22:06 36.609545 -121.553275 324 8262ft 213kts
26-Jul-18 22:07 36.654585 -121.594382 324 7096ft 196kts
26-Jul-18 22:08 36.704504 -121.605638 7 5714ft 192kts
26-Jul-18 22:09 36.749490 -121.577459 56 4464ft 194kts
26-Jul-18 22:10 36.731243 -121.523463 170 4229ft 200kts
26-Jul-18 22:11 36.689651 -121.558222 236 4243ft 193kts
26-Jul-18 22:12 36.657470 -121.611893 231 4222ft 193kts
26-Jul-18 22:13 36.622740 -121.661375 231 4022ft 193kts
26-Jul-18 22:14 36.587924 -121.711304 231 2497ft 190kts
26-Jul-18 22:15 36.561062 -121.757053 264 1425ft 134kts
26-Jul-18 22:16 36.572208 -121.800206 293 842ft 132kts
26-Jul-18 22:17 36.586074 -121.841659 291 176ft 103kts
26-Jul-18 22:18 36.587438 -121.849078 234 175ft 8kts
26-Jul-18 22:19 36.587277 -121.849338 233 175ft 0kts
26-Jul-18 22:20 36.587277 -121.849338 233 175ft 0kts
26-Jul-18 22:21 36.587277 -121.849338 233 175ft 0kts
26-Jul-18 22:22 36.587277 -121.849338 233 175ft 0kts

Navigation Log

Ident Type
Flight plan parsing failed, navigation log unavailable